sensor_id;sensor_type;location;lat;lon;timestamp;pressure;altitude;pressure_sealevel;temperature;humidity
10470;BME280;5282;47.052;15.458;2023-02-26T00:00:55;96415.75;;;1.33;100.00
10470;BME280;5282;47.052;15.458;2023-02-26T00:03:22;96415.06;;;1.31;100.00
10470;BME280;5282;47.052;15.458;2023-02-26T00:05:52;96423.19;;;1.49;100.00
10470;BME280;5282;47.052;15.458;2023-02-26T00:08:19;96426.38;;;1.43;100.00
10470;BME280;5282;47.052;15.458;2023-02-26T00:10:46;96409.34;;;1.26;100.00
10470;BME280;5282;47.052;15.458;2023-02-26T00:13:16;96412.09;;;1.25;100.00
10470;BME280;5282;47.052;15.458;2023-02-26T00:15:44;96417.44;;;1.44;100.00
10470;BME280;5282;47.052;15.458;2023-02-26T00:18:12;96421.63;;;1.37;100.00
10470;BME280;5282;47.052;15.458;2023-02-26T00:20:45;96413.50;;;1.19;100.00
10470;BME280;5282;47.052;15.458;2023-02-26T00:23:14;96431.97;;;1.40;100.00
10470;BME280;5282;47.052;15.458;2023-02-26T00:25:41;96438.53;;;1.46;100.00
10470;BME280;5282;47.052;15.458;2023-02-26T00:28:08;96446.06;;;1.31;100.00
10470;BME280;5282;47.052;15.458;2023-02-26T00:30:36;96453.16;;;1.20;100.00
10470;BME280;5282;47.052;15.458;2023-02-26T00:33:04;96447.84;;;1.20;100.00
10470;BME280;5282;47.052;15.458;2023-02-26T00:35:32;96447.09;;;1.08;100.00
10470;BME280;5282;47.052;15.458;2023-02-26T00:38:02;96453.00;;;1.22;100.00
10470;BME280;5282;47.052;15.458;2023-02-26T00:40:35;96455.34;;;1.15;100.00
10470;BME280;5282;47.052;15.458;2023-02-26T00:43:04;96448.06;;;1.07;100.00
10470;BME280;5282;47.052;15.458;2023-02-26T00:45:32;96451.16;;;1.13;100.00
10470;BME280;5282;47.052;15.458;2023-02-26T00:48:20;96450.41;;;1.01;100.00
10470;BME280;5282;47.052;15.458;2023-02-26T00:50:54;96440.56;;;0.82;100.00
10470;BME280;5282;47.052;15.458;2023-02-26T00:53:28;96437.09;;;0.81;100.00
10470;BME280;5282;47.052;15.458;2023-02-26T00:55:59;96436.75;;;0.96;100.00
10470;BME280;5282;47.052;15.458;2023-02-26T00:58:26;96428.50;;;0.89;100.00
10470;BME280;5282;47.052;15.458;2023-02-26T01:00:53;96417.41;;;0.74;100.00
10470;BME280;5282;47.052;15.458;2023-02-26T01:03:20;96417.19;;;0.87;100.00
10470;BME280;5282;47.052;15.458;2023-02-26T01:05:50;96422.63;;;0.54;100.00
10470;BME280;5282;47.052;15.458;2023-02-26T01:08:23;96416.31;;;0.76;100.00
10470;BME280;5282;47.052;15.458;2023-02-26T01:10:54;96419.53;;;0.80;100.00
10470;BME280;5282;47.052;15.458;2023-02-26T01:13:23;96430.94;;;0.71;100.00
10470;BME280;5282;47.052;15.458;2023-02-26T01:15:53;96438.06;;;0.80;100.00
10470;BME280;5282;47.052;15.458;2023-02-26T01:18:27;96427.44;;;0.70;100.00
10470;BME280;5282;47.052;15.458;2023-02-26T01:21:02;96427.38;;;0.91;100.00
10470;BME280;5282;47.052;15.458;2023-02-26T01:23:32;96424.19;;;0.98;100.00
10470;BME280;5282;47.052;15.458;2023-02-26T01:26:06;96420.44;;;1.00;100.00
10470;BME280;5282;47.052;15.458;2023-02-26T01:28:38;96413.41;;;0.89;100.00
10470;BME280;5282;47.052;15.458;2023-02-26T01:31:05;96422.22;;;0.90;100.00
10470;BME280;5282;47.052;15.458;2023-02-26T01:33:43;96425.47;;;0.63;100.00
10470;BME280;5282;47.052;15.458;2023-02-26T01:36:18;96435.13;;;0.73;100.00
10470;BME280;5282;47.052;15.458;2023-02-26T01:38:51;96445.31;;;0.78;100.00
10470;BME280;5282;47.052;15.458;2023-02-26T01:41:29;96448.94;;;0.77;100.00
10470;BME280;5282;47.052;15.458;2023-02-26T01:44:11;96439.09;;;0.89;100.00
10470;BME280;5282;47.052;15.458;2023-02-26T01:46:58;96432.41;;;0.95;100.00
10470;BME280;5282;47.052;15.458;2023-02-26T01:49:28;96425.44;;;0.94;100.00
10470;BME280;5282;47.052;15.458;2023-02-26T01:51:57;96406.03;;;0.93;100.00
10470;BME280;5282;47.052;15.458;2023-02-26T01:54:29;96405.88;;;0.85;100.00
10470;BME280;5282;47.052;15.458;2023-02-26T01:56:59;96412.28;;;0.82;100.00
10470;BME280;5282;47.052;15.458;2023-02-26T01:59:31;96420.84;;;0.96;100.00
10470;BME280;5282;47.052;15.458;2023-02-26T02:02:01;96414.81;;;0.94;100.00
10470;BME280;5282;47.052;15.458;2023-02-26T02:04:30;96417.19;;;0.87;100.00
10470;BME280;5282;47.052;15.458;2023-02-26T02:06:59;96433.47;;;0.82;100.00
10470;BME280;5282;47.052;15.458;2023-02-26T02:09:30;96437.00;;;0.92;100.00
10470;BME280;5282;47.052;15.458;2023-02-26T02:12:11;96442.72;;;0.88;100.00
10470;BME280;5282;47.052;15.458;2023-02-26T02:14:53;96443.38;;;0.80;100.00
10470;BME280;5282;47.052;15.458;2023-02-26T02:17:30;96457.16;;;0.74;100.00
10470;BME280;5282;47.052;15.458;2023-02-26T02:20:29;96450.78;;;0.86;100.00
10470;BME280;5282;47.052;15.458;2023-02-26T02:23:15;96439.59;;;0.73;100.00
10470;BME280;5282;47.052;15.458;2023-02-26T02:26:10;96438.03;;;0.70;100.00
10470;BME280;5282;47.052;15.458;2023-02-26T02:28:48;96441.59;;;0.90;100.00
10470;BME280;5282;47.052;15.458;2023-02-26T02:31:24;96445.19;;;0.80;100.00
10470;BME280;5282;47.052;15.458;2023-02-26T02:33:57;96453.97;;;0.80;100.00
10470;BME280;5282;47.052;15.458;2023-02-26T02:36:35;96454.63;;;1.03;100.00
10470;BME280;5282;47.052;15.458;2023-02-26T02:39:07;96442.47;;;1.01;100.00
10470;BME280;5282;47.052;15.458;2023-02-26T02:41:38;96449.16;;;0.95;100.00
10470;BME280;5282;47.052;15.458;2023-02-26T02:44:12;96465.72;;;0.87;100.00
10470;BME280;5282;47.052;15.458;2023-02-26T02:46:43;96460.34;;;1.08;100.00
10470;BME280;5282;47.052;15.458;2023-02-26T02:49:14;96462.00;;;1.00;100.00
10470;BME280;5282;47.052;15.458;2023-02-26T02:51:46;96463.41;;;1.04;100.00
10470;BME280;5282;47.052;15.458;2023-02-26T02:54:17;96469.53;;;0.95;100.00
10470;BME280;5282;47.052;15.458;2023-02-26T02:56:49;96474.56;;;0.98;100.00
10470;BME280;5282;47.052;15.458;2023-02-26T02:59:21;96476.75;;;0.92;100.00
10470;BME280;5282;47.052;15.458;2023-02-26T03:01:54;96490.00;;;0.61;100.00
10470;BME280;5282;47.052;15.458;2023-02-26T03:04:24;96492.03;;;0.79;100.00
10470;BME280;5282;47.052;15.458;2023-02-26T03:06:51;96497.56;;;0.66;100.00
10470;BME280;5282;47.052;15.458;2023-02-26T03:09:18;96499.47;;;0.85;100.00
10470;BME280;5282;47.052;15.458;2023-02-26T03:11:45;96503.84;;;0.96;100.00
10470;BME280;5282;47.052;15.458;2023-02-26T03:14:14;96502.56;;;0.69;100.00
10470;BME280;5282;47.052;15.458;2023-02-26T03:17:03;96499.28;;;0.77;100.00
10470;BME280;5282;47.052;15.458;2023-02-26T03:19:40;96501.41;;;0.83;100.00
10470;BME280;5282;47.052;15.458;2023-02-26T03:22:14;96510.09;;;0.64;100.00
10470;BME280;5282;47.052;15.458;2023-02-26T03:24:47;96527.03;;;0.52;100.00
10470;BME280;5282;47.052;15.458;2023-02-26T03:27:20;96526.44;;;0.27;100.00
10470;BME280;5282;47.052;15.458;2023-02-26T03:29:54;96531.28;;;0.22;100.00
10470;BME280;5282;47.052;15.458;2023-02-26T03:32:27;96527.03;;;0.52;100.00
10470;BME280;5282;47.052;15.458;2023-02-26T03:35:00;96531.47;;;0.30;100.00
10470;BME280;5282;47.052;15.458;2023-02-26T03:37:31;96526.56;;;0.46;100.00
10470;BME280;5282;47.052;15.458;2023-02-26T03:40:03;96532.06;;;0.34;100.00
10470;BME280;5282;47.052;15.458;2023-02-26T03:42:37;96535.06;;;0.08;100.00
10470;BME280;5282;47.052;15.458;2023-02-26T03:45:10;96539.00;;;0.13;100.00
10470;BME280;5282;47.052;15.458;2023-02-26T03:47:41;96537.88;;;0.49;100.00
10470;BME280;5282;47.052;15.458;2023-02-26T03:50:14;96526.19;;;0.51;100.00
10470;BME280;5282;47.052;15.458;2023-02-26T03:52:44;96525.28;;;0.62;100.00
10470;BME280;5282;47.052;15.458;2023-02-26T03:55:16;96524.94;;;0.55;100.00
10470;BME280;5282;47.052;15.458;2023-02-26T03:57:44;96519.72;;;0.44;100.00
10470;BME280;5282;47.052;15.458;2023-02-26T04:00:12;96521.41;;;0.45;100.00
10470;BME280;5282;47.052;15.458;2023-02-26T04:02:43;96516.50;;;0.61;100.00
10470;BME280;5282;47.052;15.458;2023-02-26T04:05:15;96517.91;;;0.66;100.00
10470;BME280;5282;47.052;15.458;2023-02-26T04:07:44;96517.16;;;0.54;100.00
10470;BME280;5282;47.052;15.458;2023-02-26T04:10:14;96522.38;;;0.44;100.00
10470;BME280;5282;47.052;15.458;2023-02-26T04:12:42;96531.50;;;0.51;100.00
10470;BME280;5282;47.052;15.458;2023-02-26T04:15:10;96533.44;;;0.49;100.00
10470;BME280;5282;47.052;15.458;2023-02-26T04:17:37;96530.41;;;0.54;100.00
10470;BME280;5282;47.052;15.458;2023-02-26T04:20:06;96540.91;;;0.44;100.00
10470;BME280;5282;47.052;15.458;2023-02-26T04:22:35;96533.69;;;0.46;100.00
10470;BME280;5282;47.052;15.458;2023-02-26T04:25:02;96541.31;;;0.60;100.00
10470;BME280;5282;47.052;15.458;2023-02-26T04:27:29;96549.91;;;0.53;100.00
10470;BME280;5282;47.052;15.458;2023-02-26T04:29:56;96552.50;;;0.64;100.00
10470;BME280;5282;47.052;15.458;2023-02-26T04:32:23;96550.88;;;0.73;100.00
10470;BME280;5282;47.052;15.458;2023-02-26T04:34:50;96553.28;;;0.55;100.00
10470;BME280;5282;47.052;15.458;2023-02-26T04:37:19;96561.84;;;0.47;100.00
10470;BME280;5282;47.052;15.458;2023-02-26T04:39:46;96557.06;;;0.41;100.00
10470;BME280;5282;47.052;15.458;2023-02-26T04:42:12;96565.78;;;0.32;100.00
10470;BME280;5282;47.052;15.458;2023-02-26T04:44:39;96564.03;;;0.21;100.00
10470;BME280;5282;47.052;15.458;2023-02-26T04:47:06;96571.38;;;0.17;100.00
10470;BME280;5282;47.052;15.458;2023-02-26T04:49:33;96580.50;;;0.24;100.00
10470;BME280;5282;47.052;15.458;2023-02-26T04:52:00;96584.41;;;0.41;100.00
10470;BME280;5282;47.052;15.458;2023-02-26T04:54:30;96574.31;;;0.56;100.00
10470;BME280;5282;47.052;15.458;2023-02-26T04:56:57;96577.44;;;0.61;100.00
10470;BME280;5282;47.052;15.458;2023-02-26T04:59:24;96579.56;;;0.68;100.00
10470;BME280;5282;47.052;15.458;2023-02-26T05:01:51;96582.78;;;0.71;100.00
10470;BME280;5282;47.052;15.458;2023-02-26T05:04:18;96581.03;;;0.39;100.00
10470;BME280;5282;47.052;15.458;2023-02-26T05:06:45;96595.31;;;0.48;100.00
10470;BME280;5282;47.052;15.458;2023-02-26T05:09:12;96589.38;;;0.56;100.00
10470;BME280;5282;47.052;15.458;2023-02-26T05:11:40;96586.53;;;0.69;100.00
10470;BME280;5282;47.052;15.458;2023-02-26T05:14:07;96597.47;;;0.75;100.00
10470;BME280;5282;47.052;15.458;2023-02-26T05:16:36;96600.63;;;0.48;100.00
10470;BME280;5282;47.052;15.458;2023-02-26T05:19:03;96602.25;;;0.60;100.00
10470;BME280;5282;47.052;15.458;2023-02-26T05:21:30;96600.41;;;0.61;100.00
10470;BME280;5282;47.052;15.458;2023-02-26T05:23:58;96604.94;;;0.70;100.00
10470;BME280;5282;47.052;15.458;2023-02-26T05:26:27;96598.44;;;0.74;100.00
10470;BME280;5282;47.052;15.458;2023-02-26T05:28:55;96609.34;;;0.81;100.00
10470;BME280;5282;47.052;15.458;2023-02-26T05:31:22;96606.56;;;0.61;100.00
10470;BME280;5282;47.052;15.458;2023-02-26T05:33:49;96608.19;;;0.74;100.00
10470;BME280;5282;47.052;15.458;2023-02-26T05:36:16;96611.53;;;0.76;100.00
10470;BME280;5282;47.052;15.458;2023-02-26T05:38:43;96622.72;;;0.58;100.00
10470;BME280;5282;47.052;15.458;2023-02-26T05:41:10;96617.19;;;0.61;100.00
10470;BME280;5282;47.052;15.458;2023-02-26T05:43:37;96618.25;;;0.59;100.00
10470;BME280;5282;47.052;15.458;2023-02-26T05:46:05;96619.63;;;0.74;100.00
10470;BME280;5282;47.052;15.458;2023-02-26T05:48:33;96604.31;;;0.78;100.00
10470;BME280;5282;47.052;15.458;2023-02-26T05:51:02;96607.09;;;0.76;100.00
10470;BME280;5282;47.052;15.458;2023-02-26T05:53:29;96610.72;;;0.75;100.00
10470;BME280;5282;47.052;15.458;2023-02-26T05:55:55;96611.44;;;0.77;100.00
10470;BME280;5282;47.052;15.458;2023-02-26T05:58:22;96615.03;;;0.76;100.00
10470;BME280;5282;47.052;15.458;2023-02-26T06:00:49;96604.84;;;0.72;100.00
10470;BME280;5282;47.052;15.458;2023-02-26T06:03:18;96608.50;;;0.59;100.00
10470;BME280;5282;47.052;15.458;2023-02-26T06:05:45;96618.34;;;0.69;100.00
10470;BME280;5282;47.052;15.458;2023-02-26T06:08:12;96614.09;;;0.77;100.00
10470;BME280;5282;47.052;15.458;2023-02-26T06:10:40;96625.66;;;0.76;100.00
10470;BME280;5282;47.052;15.458;2023-02-26T06:13:07;96625.06;;;0.73;100.00
10470;BME280;5282;47.052;15.458;2023-02-26T06:15:34;96635.38;;;0.76;100.00
10470;BME280;5282;47.052;15.458;2023-02-26T06:18:01;96645.34;;;0.84;100.00
10470;BME280;5282;47.052;15.458;2023-02-26T06:20:29;96652.00;;;0.78;100.00
10470;BME280;5282;47.052;15.458;2023-02-26T06:22:56;96658.78;;;0.71;100.00
10470;BME280;5282;47.052;15.458;2023-02-26T06:25:23;96666.31;;;0.87;100.00
10470;BME280;5282;47.052;15.458;2023-02-26T06:27:50;96671.22;;;0.91;100.00
10470;BME280;5282;47.052;15.458;2023-02-26T06:30:17;96664.56;;;0.97;100.00
10470;BME280;5282;47.052;15.458;2023-02-26T06:32:44;96662.88;;;0.96;100.00
10470;BME280;5282;47.052;15.458;2023-02-26T06:35:11;96667.72;;;0.70;100.00
10470;BME280;5282;47.052;15.458;2023-02-26T06:37:39;96673.16;;;0.68;100.00
10470;BME280;5282;47.052;15.458;2023-02-26T06:40:08;96673.78;;;0.82;100.00
10470;BME280;5282;47.052;15.458;2023-02-26T06:42:36;96676.66;;;0.90;100.00
10470;BME280;5282;47.052;15.458;2023-02-26T06:45:04;96677.81;;;0.97;100.00
10470;BME280;5282;47.052;15.458;2023-02-26T06:47:31;96674.19;;;0.98;100.00
10470;BME280;5282;47.052;15.458;2023-02-26T06:49:58;96676.94;;;1.08;100.00
10470;BME280;5282;47.052;15.458;2023-02-26T06:52:25;96679.75;;;1.16;100.00
10470;BME280;5282;47.052;15.458;2023-02-26T06:54:55;96692.31;;;1.14;100.00
10470;BME280;5282;47.052;15.458;2023-02-26T06:57:22;96701.19;;;1.03;100.00
10470;BME280;5282;47.052;15.458;2023-02-26T06:59:49;96699.03;;;1.18;100.00
10470;BME280;5282;47.052;15.458;2023-02-26T07:02:18;96695.53;;;0.97;100.00
10470;BME280;5282;47.052;15.458;2023-02-26T07:04:45;96690.13;;;1.19;100.00
10470;BME280;5282;47.052;15.458;2023-02-26T07:07:13;96690.63;;;1.13;100.00
10470;BME280;5282;47.052;15.458;2023-02-26T07:09:40;96697.66;;;1.03;100.00
10470;BME280;5282;47.052;15.458;2023-02-26T07:12:10;96699.94;;;1.29;100.00
10470;BME280;5282;47.052;15.458;2023-02-26T07:14:37;96698.81;;;1.52;100.00
10470;BME280;5282;47.052;15.458;2023-02-26T07:17:04;96699.00;;;1.61;100.00
10470;BME280;5282;47.052;15.458;2023-02-26T07:19:31;96699.00;;;1.61;100.00
10470;BME280;5282;47.052;15.458;2023-02-26T07:21:58;96699.72;;;1.63;100.00
10470;BME280;5282;47.052;15.458;2023-02-26T07:24:25;96702.38;;;1.63;100.00
10470;BME280;5282;47.052;15.458;2023-02-26T07:26:52;96698.50;;;1.77;100.00
10470;BME280;5282;47.052;15.458;2023-02-26T07:29:20;96706.88;;;1.72;100.00
10470;BME280;5282;47.052;15.458;2023-02-26T07:31:47;96715.06;;;1.59;100.00
10470;BME280;5282;47.052;15.458;2023-02-26T07:34:14;96715.28;;;1.77;100.00
10470;BME280;5282;47.052;15.458;2023-02-26T07:36:41;96715.16;;;1.79;100.00
10470;BME280;5282;47.052;15.458;2023-02-26T07:39:09;96711.28;;;1.83;100.00
10470;BME280;5282;47.052;15.458;2023-02-26T07:41:36;96713.69;;;1.96;100.00
10470;BME280;5282;47.052;15.458;2023-02-26T07:44:03;96715.88;;;1.91;100.00
10470;BME280;5282;47.052;15.458;2023-02-26T07:46:31;96721.81;;;1.94;100.00
10470;BME280;5282;47.052;15.458;2023-02-26T07:48:58;96724.88;;;1.99;100.00
10470;BME280;5282;47.052;15.458;2023-02-26T07:51:25;96729.66;;;1.75;100.00
10470;BME280;5282;47.052;15.458;2023-02-26T07:53:54;96719.81;;;1.87;100.00
10470;BME280;5282;47.052;15.458;2023-02-26T07:56:22;96724.94;;;2.09;100.00
10470;BME280;5282;47.052;15.458;2023-02-26T07:58:48;96714.34;;;2.29;100.00
10470;BME280;5282;47.052;15.458;2023-02-26T08:01:16;96724.66;;;2.12;100.00
10470;BME280;5282;47.052;15.458;2023-02-26T08:03:44;96719.41;;;2.32;100.00
10470;BME280;5282;47.052;15.458;2023-02-26T08:06:11;96721.94;;;2.43;100.00
10470;BME280;5282;47.052;15.458;2023-02-26T08:08:41;96727.09;;;2.45;100.00
10470;BME280;5282;47.052;15.458;2023-02-26T08:11:08;96734.56;;;2.61;100.00
10470;BME280;5282;47.052;15.458;2023-02-26T08:13:34;96731.25;;;2.28;100.00
10470;BME280;5282;47.052;15.458;2023-02-26T08:16:01;96726.09;;;2.36;100.00
10470;BME280;5282;47.052;15.458;2023-02-26T08:18:28;96734.13;;;2.56;100.00
10470;BME280;5282;47.052;15.458;2023-02-26T08:20:57;96733.44;;;2.54;100.00
10470;BME280;5282;47.052;15.458;2023-02-26T08:23:24;96737.88;;;2.53;100.00
10470;BME280;5282;47.052;15.458;2023-02-26T08:25:59;96736.50;;;2.59;100.00
10470;BME280;5282;47.052;15.458;2023-02-26T08:28:26;96731.78;;;2.62;100.00
10470;BME280;5282;47.052;15.458;2023-02-26T08:30:54;96745.25;;;2.30;100.00
10470;BME280;5282;47.052;15.458;2023-02-26T08:33:21;96749.75;;;2.39;100.00
10470;BME280;5282;47.052;15.458;2023-02-26T08:35:48;96766.78;;;2.27;100.00
10470;BME280;5282;47.052;15.458;2023-02-26T08:38:16;96779.19;;;2.16;100.00
10470;BME280;5282;47.052;15.458;2023-02-26T08:40:43;96781.13;;;2.45;100.00
10470;BME280;5282;47.052;15.458;2023-02-26T08:43:10;96782.09;;;2.54;100.00
10470;BME280;5282;47.052;15.458;2023-02-26T08:45:37;96768.00;;;2.64;100.00
10470;BME280;5282;47.052;15.458;2023-02-26T08:48:05;96779.66;;;2.82;100.00
10470;BME280;5282;47.052;15.458;2023-02-26T08:50:32;96791.66;;;2.76;100.00
10470;BME280;5282;47.052;15.458;2023-02-26T08:52:59;96799.53;;;2.88;100.00
10470;BME280;5282;47.052;15.458;2023-02-26T08:55:28;96801.25;;;2.99;100.00
10470;BME280;5282;47.052;15.458;2023-02-26T08:57:55;96815.63;;;2.86;100.00
10470;BME280;5282;47.052;15.458;2023-02-26T09:00:22;96824.47;;;3.06;100.00
10470;BME280;5282;47.052;15.458;2023-02-26T09:02:51;96830.63;;;3.17;100.00
10470;BME280;5282;47.052;15.458;2023-02-26T09:05:18;96831.22;;;3.20;100.00
10470;BME280;5282;47.052;15.458;2023-02-26T09:07:46;96820.00;;;3.27;100.00
10470;BME280;5282;47.052;15.458;2023-02-26T09:10:13;96825.03;;;3.39;100.00
10470;BME280;5282;47.052;15.458;2023-02-26T09:12:42;96835.84;;;3.67;100.00
10470;BME280;5282;47.052;15.458;2023-02-26T09:15:10;96841.56;;;3.53;100.00
10470;BME280;5282;47.052;15.458;2023-02-26T09:17:41;96835.97;;;3.27;100.00
10470;BME280;5282;47.052;15.458;2023-02-26T09:20:09;96825.34;;;3.56;100.00
10470;BME280;5282;47.052;15.458;2023-02-26T09:22:36;96830.22;;;3.70;100.00
10470;BME280;5282;47.052;15.458;2023-02-26T09:25:05;96839.88;;;3.52;100.00
10470;BME280;5282;47.052;15.458;2023-02-26T09:27:37;96831.50;;;3.66;100.00
10470;BME280;5282;47.052;15.458;2023-02-26T09:30:06;96837.53;;;3.78;100.00
10470;BME280;5282;47.052;15.458;2023-02-26T09:32:33;96837.31;;;3.99;100.00
10470;BME280;5282;47.052;15.458;2023-02-26T09:35:00;96835.13;;;3.75;100.00
10470;BME280;5282;47.052;15.458;2023-02-26T09:37:29;96837.66;;;3.67;100.00
10470;BME280;5282;47.052;15.458;2023-02-26T09:39:56;96845.91;;;3.93;100.00
10470;BME280;5282;47.052;15.458;2023-02-26T09:42:32;96855.25;;;4.07;100.00
10470;BME280;5282;47.052;15.458;2023-02-26T09:45:06;96850.47;;;4.11;96.96
10470;BME280;5282;47.052;15.458;2023-02-26T09:47:42;96854.16;;;4.00;83.61
10470;BME280;5282;47.052;15.458;2023-02-26T09:50:15;96856.44;;;4.42;91.25
10470;BME280;5282;47.052;15.458;2023-02-26T09:52:47;96846.31;;;4.46;100.00
10470;BME280;5282;47.052;15.458;2023-02-26T09:55:26;96843.09;;;4.42;92.10
10470;BME280;5282;47.052;15.458;2023-02-26T09:57:57;96839.78;;;4.30;100.00
10470;BME280;5282;47.052;15.458;2023-02-26T10:00:31;96853.44;;;4.08;90.94
10470;BME280;5282;47.052;15.458;2023-02-26T10:03:13;96859.81;;;3.48;97.04
10470;BME280;5282;47.052;15.458;2023-02-26T10:05:52;96867.47;;;3.80;86.17
10470;BME280;5282;47.052;15.458;2023-02-26T10:08:32;96859.16;;;4.23;85.20
10470;BME280;5282;47.052;15.458;2023-02-26T10:11:04;96850.66;;;4.47;86.24
10470;BME280;5282;47.052;15.458;2023-02-26T10:13:36;96854.72;;;4.51;88.97
10470;BME280;5282;47.052;15.458;2023-02-26T10:16:10;96872.59;;;4.41;97.58
10470;BME280;5282;47.052;15.458;2023-02-26T10:18:43;96866.72;;;4.27;90.89
10470;BME280;5282;47.052;15.458;2023-02-26T10:21:14;96857.78;;;4.56;84.45
10470;BME280;5282;47.052;15.458;2023-02-26T10:23:45;96858.06;;;4.91;80.31
10470;BME280;5282;47.052;15.458;2023-02-26T10:26:18;96875.00;;;5.00;73.51
10470;BME280;5282;47.052;15.458;2023-02-26T10:28:59;96876.28;;;4.96;75.83
10470;BME280;5282;47.052;15.458;2023-02-26T10:31:33;96872.09;;;4.93;78.64
10470;BME280;5282;47.052;15.458;2023-02-26T10:34:12;96869.41;;;4.65;73.88
10470;BME280;5282;47.052;15.458;2023-02-26T10:36:47;96869.75;;;4.52;79.15
10470;BME280;5282;47.052;15.458;2023-02-26T10:39:28;96866.78;;;4.83;78.94
10470;BME280;5282;47.052;15.458;2023-02-26T10:42:00;96862.44;;;4.82;67.72
10470;BME280;5282;47.052;15.458;2023-02-26T10:44:33;96868.56;;;4.65;74.25
10470;BME280;5282;47.052;15.458;2023-02-26T10:47:09;96868.34;;;4.48;81.47
10470;BME280;5282;47.052;15.458;2023-02-26T10:49:49;96880.44;;;5.08;78.78
10470;BME280;5282;47.052;15.458;2023-02-26T10:52:19;96878.94;;;4.96;72.20
10470;BME280;5282;47.052;15.458;2023-02-26T10:55:07;96892.78;;;5.09;81.51
10470;BME280;5282;47.052;15.458;2023-02-26T10:57:41;96891.78;;;4.82;64.55
10470;BME280;5282;47.052;15.458;2023-02-26T11:00:16;96896.53;;;4.88;72.38
10470;BME280;5282;47.052;15.458;2023-02-26T11:02:47;96894.75;;;5.07;72.74
10470;BME280;5282;47.052;15.458;2023-02-26T11:05:21;96899.59;;;4.93;73.91
10470;BME280;5282;47.052;15.458;2023-02-26T11:07:52;96891.31;;;4.97;75.31
10470;BME280;5282;47.052;15.458;2023-02-26T11:10:23;96884.97;;;4.98;64.08
10470;BME280;5282;47.052;15.458;2023-02-26T11:12:50;96881.88;;;5.02;63.31
10470;BME280;5282;47.052;15.458;2023-02-26T11:15:20;96879.69;;;4.88;63.74
10470;BME280;5282;47.052;15.458;2023-02-26T11:17:53;96883.09;;;5.08;65.68
10470;BME280;5282;47.052;15.458;2023-02-26T11:20:29;96887.44;;;5.09;62.69
10470;BME280;5282;47.052;15.458;2023-02-26T11:22:57;96884.91;;;5.07;60.72
10470;BME280;5282;47.052;15.458;2023-02-26T11:25:28;96890.50;;;5.14;60.97
10470;BME280;5282;47.052;15.458;2023-02-26T11:28:00;96888.94;;;4.93;61.54
10470;BME280;5282;47.052;15.458;2023-02-26T11:30:31;96891.88;;;4.90;65.53
10470;BME280;5282;47.052;15.458;2023-02-26T11:33:10;96883.78;;;4.82;60.28
10470;BME280;5282;47.052;15.458;2023-02-26T11:35:40;96891.00;;;4.62;63.31
10470;BME280;5282;47.052;15.458;2023-02-26T11:38:14;96874.75;;;4.55;61.78
10470;BME280;5282;47.052;15.458;2023-02-26T11:40:45;96882.44;;;4.68;60.28
10470;BME280;5282;47.052;15.458;2023-02-26T11:43:14;96881.41;;;4.41;58.90
10470;BME280;5282;47.052;15.458;2023-02-26T11:45:46;96886.84;;;4.02;61.22
10470;BME280;5282;47.052;15.458;2023-02-26T11:48:20;96890.81;;;4.36;64.89
10470;BME280;5282;47.052;15.458;2023-02-26T11:50:52;96887.94;;;4.09;54.31
10470;BME280;5282;47.052;15.458;2023-02-26T11:53:25;96886.03;;;4.49;57.28
10470;BME280;5282;47.052;15.458;2023-02-26T11:55:59;96894.09;;;4.67;59.27
10470;BME280;5282;47.052;15.458;2023-02-26T11:58:31;96894.81;;;4.59;59.41
10470;BME280;5282;47.052;15.458;2023-02-26T12:01:01;96885.69;;;4.62;61.86
10470;BME280;5282;47.052;15.458;2023-02-26T12:03:33;96880.91;;;4.66;59.99
10470;BME280;5282;47.052;15.458;2023-02-26T12:06:05;96884.59;;;4.55;62.20
10470;BME280;5282;47.052;15.458;2023-02-26T12:08:34;96890.19;;;4.61;62.80
10470;BME280;5282;47.052;15.458;2023-02-26T12:14:06;96883.78;;;4.54;55.89
10470;BME280;5282;47.052;15.458;2023-02-26T12:16:41;96886.25;;;4.66;54.50
10470;BME280;5282;47.052;15.458;2023-02-26T12:19:19;96890.16;;;4.71;55.58
10470;BME280;5282;47.052;15.458;2023-02-26T12:22:10;96898.53;;;4.29;57.89
10470;BME280;5282;47.052;15.458;2023-02-26T12:24:57;96903.84;;;4.48;60.70
10470;BME280;5282;47.052;15.458;2023-02-26T12:27:41;96921.13;;;4.35;
10470;BME280;5282;47.052;15.458;2023-02-26T12:30:27;96926.84;;;4.50;59.91
10470;BME280;5282;47.052;15.458;2023-02-26T12:33:10;96935.72;;;4.30;56.88
10470;BME280;5282;47.052;15.458;2023-02-26T12:38:29;96954.94;;;3.55;63.61
10470;BME280;5282;47.052;15.458;2023-02-26T12:41:20;96948.38;;;3.79;63.86
10470;BME280;5282;47.052;15.458;2023-02-26T12:43:51;96952.81;;;3.49;82.97
10470;BME280;5282;47.052;15.458;2023-02-26T12:46:36;96959.97;;;3.49;98.47
10470;BME280;5282;47.052;15.458;2023-02-26T12:49:32;96965.09;;;3.31;100.00
10470;BME280;5282;47.052;15.458;2023-02-26T12:55:13;96965.84;;;3.52;100.00
10470;BME280;5282;47.052;15.458;2023-02-26T12:58:03;96960.25;;;3.46;100.00
10470;BME280;5282;47.052;15.458;2023-02-26T13:03:36;96967.41;;;3.55;100.00
10470;BME280;5282;47.052;15.458;2023-02-26T13:06:26;96970.63;;;3.49;100.00
10470;BME280;5282;47.052;15.458;2023-02-26T13:09:03;96980.25;;;3.40;100.00
10470;BME280;5282;47.052;15.458;2023-02-26T13:11:46;96974.38;;;3.46;100.00
10470;BME280;5282;47.052;15.458;2023-02-26T13:14:27;96989.59;;;3.24;100.00
10470;BME280;5282;47.052;15.458;2023-02-26T13:17:02;96987.78;;;3.25;100.00
10470;BME280;5282;47.052;15.458;2023-02-26T13:19:38;96975.25;;;3.57;100.00
10470;BME280;5282;47.052;15.458;2023-02-26T13:22:14;96979.00;;;3.54;100.00
10470;BME280;5282;47.052;15.458;2023-02-26T13:24:50;96983.66;;;3.62;100.00
10470;BME280;5282;47.052;15.458;2023-02-26T13:27:23;96984.22;;;3.55;100.00
10470;BME280;5282;47.052;15.458;2023-02-26T13:30:13;96989.50;;;3.46;100.00
10470;BME280;5282;47.052;15.458;2023-02-26T13:32:42;96996.00;;;3.63;100.00
10470;BME280;5282;47.052;15.458;2023-02-26T13:35:19;96995.31;;;3.80;100.00